Main page
METAR-TAF:

METAR-TAF

Airports :

Juan Vicente Gómez International Airport

San Antonio del Táchira, Venezuela

latitude: 07-51N, longitude: 072-27W, elevation: 377 m

METAR: missing

Time: 05:58 (09:58 UTC)

Forecast

The report was made 5 hours and 58 minutes ago, at 04:00 UTC
Forecast valid from 18 at 06 UTC to 19 at 06 UTC
Wind kt from the North
Visibility 10 km or more
Scattered clouds at a height of 1300 ft
Temporary
from 18 at 06 UTC to 18 at 10 UTC
Visibility: 8000 m
Broken clouds at a height of 1300 ft, Cumulonimbus.
thunderstorm, drizzle,

TAF: SVSA 180400Z 1806/1906 00000KT 9999 SCT013 TX31/1802Z TN16/1808Z TEMPO 1806/1810 8000 TSDZ BKN013CB

Weather observations and forecasts of more than 4000 airports (METAR and TAF reports).

The available stations are represented by yellow and red dots on the map.

Hover mouse over dot to see the name of the station.

Then click to see weather observations and forecasts.

To change the map : click on the green buttons with a black cross to zoom in, on the green button with a dash to zoom out, or on the green arrows for adjacent maps.


METAR-TAF: